createdAt,value
2022-09-30T00:01:46.830Z,968.7
2022-09-30T00:08:23.772Z,968.76
2022-09-30T00:14:59.669Z,968.87
2022-09-30T00:21:39.276Z,968.95
2022-09-30T00:28:08.214Z,969.02
2022-09-30T00:34:42.665Z,968.95
2022-09-30T00:41:21.274Z,968.99
2022-09-30T00:48:17.093Z,968.99
2022-09-30T00:55:09.262Z,969.03
2022-09-30T01:02:03.234Z,969.08
2022-09-30T01:08:39.238Z,969.17
2022-09-30T01:15:15.161Z,969.22
2022-09-30T01:22:26.278Z,969.22
2022-09-30T01:29:29.091Z,969.25
2022-09-30T01:36:45.270Z,969.26
2022-09-30T01:44:05.117Z,969.29
2022-09-30T01:51:10.216Z,969.23
2022-09-30T01:58:26.347Z,969.21
2022-09-30T02:05:21.423Z,969.25
2022-09-30T02:12:25.187Z,969.29
2022-09-30T02:19:39.034Z,969.42
2022-09-30T02:26:39.808Z,969.36
2022-09-30T02:33:35.814Z,969.36
2022-09-30T02:40:45.303Z,969.27
2022-09-30T02:47:50.267Z,969.29
2022-09-30T02:55:21.209Z,969.44
2022-09-30T03:02:31.699Z,969.47
2022-09-30T03:09:09.973Z,969.47
2022-09-30T03:16:14.959Z,969.52
2022-09-30T03:23:31.537Z,969.59
2022-09-30T03:30:33.422Z,969.67
2022-09-30T03:37:35.728Z,969.76
2022-09-30T03:44:31.172Z,969.77
2022-09-30T03:51:26.472Z,969.68
2022-09-30T03:58:04.298Z,969.71
2022-09-30T04:04:42.249Z,969.89
2022-09-30T04:11:06.435Z,969.96
2022-09-30T04:17:35.129Z,970
2022-09-30T04:24:17.644Z,970.08
2022-09-30T04:30:49.615Z,970.1
2022-09-30T04:37:16.320Z,970.06
2022-09-30T04:43:46.238Z,970.08
2022-09-30T04:50:16.341Z,970.27
2022-09-30T04:56:44.327Z,970.35
2022-09-30T05:03:16.324Z,970.4
2022-09-30T05:09:52.360Z,970.55
2022-09-30T05:16:27.004Z,970.7
2022-09-30T05:23:02.465Z,970.76
2022-09-30T05:29:30.279Z,970.86
2022-09-30T05:36:12.421Z,970.85
2022-09-30T05:42:46.656Z,970.87
2022-09-30T05:49:12.712Z,970.98
2022-09-30T05:55:40.356Z,971.08
2022-09-30T06:02:14.022Z,971.16
2022-09-30T06:08:41.559Z,971.22
2022-09-30T06:15:13.415Z,971.29
2022-09-30T06:21:47.909Z,971.41
2022-09-30T06:28:11.453Z,971.45
2022-09-30T06:34:57.029Z,971.52
2022-09-30T06:41:24.369Z,971.6
2022-09-30T06:48:01.141Z,971.64
2022-09-30T06:54:30.311Z,971.72
2022-09-30T07:01:05.026Z,971.85
2022-09-30T07:07:44.404Z,971.83
2022-09-30T07:14:11.415Z,971.73
2022-09-30T07:20:44.384Z,971.82
2022-09-30T07:27:24.451Z,971.86
2022-09-30T07:33:56.746Z,971.83
2022-09-30T07:40:27.411Z,971.84
2022-09-30T07:47:07.085Z,971.87
2022-09-30T07:53:40.776Z,971.88
2022-09-30T08:00:41.960Z,971.94
2022-09-30T08:07:04.456Z,972.03
2022-09-30T08:13:38.941Z,971.97
2022-09-30T08:20:24.387Z,972.02
2022-09-30T08:26:56.538Z,972.09
2022-09-30T08:33:27.410Z,972.11
2022-09-30T08:39:56.771Z,972.12
2022-09-30T08:47:02.586Z,972.15
2022-09-30T08:54:09.437Z,972.16
2022-09-30T09:01:09.587Z,972.23
2022-09-30T09:08:14.887Z,972.25
2022-09-30T09:15:26.575Z,972.31
2022-09-30T09:22:40.437Z,972.32
2022-09-30T09:29:21.700Z,972.33
2022-09-30T09:36:12.023Z,972.3
2022-09-30T09:43:30.349Z,972.27
2022-09-30T09:50:36.479Z,972.28
2022-09-30T09:57:25.431Z,972.32
2022-09-30T10:04:11.112Z,972.22
2022-09-30T10:11:08.064Z,972.13
2022-09-30T10:18:04.466Z,972.12
2022-09-30T10:24:49.359Z,972.16
2022-09-30T10:31:44.717Z,972.19
2022-09-30T10:38:36.202Z,972.29
2022-09-30T10:45:42.784Z,972.33
2022-09-30T10:52:43.606Z,972.33
2022-09-30T10:59:52.939Z,972.26
2022-09-30T11:06:52.615Z,972.26
2022-09-30T11:14:05.000Z,972.31
2022-09-30T11:21:18.601Z,972.3
2022-09-30T11:28:23.474Z,972.34
2022-09-30T11:35:29.553Z,972.37
2022-09-30T11:42:32.876Z,972.37
2022-09-30T11:49:31.918Z,972.33
2022-09-30T11:56:38.070Z,972.27
2022-09-30T12:03:42.243Z,972.22
2022-09-30T12:10:51.492Z,972.25
2022-09-30T12:17:52.964Z,972.2
2022-09-30T12:25:04.871Z,972.29
2022-09-30T12:32:07.001Z,972.39
2022-09-30T12:39:14.631Z,972.47
2022-09-30T12:46:18.913Z,972.45
2022-09-30T12:53:22.909Z,972.48
2022-09-30T13:00:22.778Z,972.44
2022-09-30T13:07:24.860Z,972.38
2022-09-30T13:14:27.182Z,972.43
2022-09-30T13:21:42.067Z,972.48
2022-09-30T13:28:31.699Z,972.5
2022-09-30T13:35:21.006Z,972.51
2022-09-30T13:42:27.300Z,972.5
2022-09-30T13:49:45.034Z,972.62
2022-09-30T13:56:53.771Z,972.49
2022-09-30T14:04:10.712Z,972.46
2022-09-30T14:11:23.043Z,972.46
2022-09-30T14:18:24.030Z,972.3
2022-09-30T14:25:17.477Z,972.22
2022-09-30T14:32:19.114Z,972.26
2022-09-30T14:39:18.233Z,972.29
2022-09-30T14:46:13.818Z,972.23
2022-09-30T14:53:24.605Z,972.25
2022-09-30T15:00:20.976Z,972.24
2022-09-30T15:07:09.712Z,972.23
2022-09-30T15:13:51.954Z,972.23
2022-09-30T15:20:41.742Z,972.15
2022-09-30T15:27:19.964Z,972.11
2022-09-30T15:34:25.738Z,972.08
2022-09-30T15:41:01.299Z,972.12
2022-09-30T15:47:50.344Z,972.16
2022-09-30T15:54:52.933Z,972.2
2022-09-30T16:01:53.067Z,972.19
2022-09-30T16:08:35.158Z,972.2
2022-09-30T16:15:28.938Z,972.26
2022-09-30T16:22:21.897Z,972.26
2022-09-30T16:29:16.996Z,972.28
2022-09-30T16:35:56.683Z,972.32
2022-09-30T16:42:38.817Z,972.4
2022-09-30T16:49:10.176Z,972.42
2022-09-30T16:55:50.487Z,972.48
2022-09-30T17:02:32.758Z,972.53
2022-09-30T17:09:17.230Z,972.64
2022-09-30T17:15:49.854Z,972.69
2022-09-30T17:22:24.650Z,972.79
2022-09-30T17:29:09.141Z,972.92
2022-09-30T17:35:32.652Z,973
2022-09-30T17:42:01.544Z,973.03
2022-09-30T17:48:40.761Z,972.97
2022-09-30T17:55:14.436Z,972.9
2022-09-30T18:01:46.164Z,972.82
2022-09-30T18:08:22.809Z,972.81
2022-09-30T18:14:44.675Z,972.86
2022-09-30T18:21:14.513Z,972.92
2022-09-30T18:27:58.920Z,972.85
2022-09-30T18:34:33.559Z,972.81
2022-09-30T18:41:02.782Z,972.86
2022-09-30T18:47:47.362Z,972.83
2022-09-30T18:54:28.720Z,972.82
2022-09-30T19:01:03.741Z,972.97
2022-09-30T19:07:43.863Z,972.95
2022-09-30T19:14:32.400Z,972.95
2022-09-30T19:21:12.731Z,972.97
2022-09-30T19:27:40.258Z,973.13
2022-09-30T19:34:31.971Z,973.25
2022-09-30T19:41:07.511Z,973.23
2022-09-30T19:54:41.697Z,973.15
2022-09-30T20:01:28.441Z,973.08
2022-09-30T20:07:58.196Z,973
2022-09-30T20:14:33.176Z,972.94
2022-09-30T20:21:12.030Z,973.07
2022-09-30T20:27:42.146Z,973.26
2022-09-30T20:34:07.581Z,973.36
2022-09-30T20:40:38.668Z,973.29
2022-09-30T20:47:11.726Z,973.27
2022-09-30T20:53:54.702Z,973.24
2022-09-30T21:00:27.077Z,973.17
2022-09-30T21:07:07.803Z,973.19
2022-09-30T21:13:36.796Z,973.02
2022-09-30T21:20:09.482Z,972.98
2022-09-30T21:26:51.302Z,972.86
2022-09-30T21:33:21.994Z,972.72
2022-09-30T21:39:58.065Z,972.71
2022-09-30T21:46:37.180Z,972.72
2022-09-30T21:53:13.924Z,972.65
2022-09-30T21:59:57.801Z,972.77
2022-09-30T22:06:28.792Z,972.76
2022-09-30T22:12:55.926Z,972.75
2022-09-30T22:19:35.121Z,972.61
2022-09-30T22:26:03.124Z,972.62
2022-09-30T22:32:38.987Z,972.51
2022-09-30T22:39:11.122Z,972.52
2022-09-30T22:45:46.919Z,972.45
2022-09-30T22:52:21.553Z,972.4
2022-09-30T22:58:56.430Z,972.44
2022-09-30T23:05:25.238Z,972.42
2022-09-30T23:12:03.016Z,972.4
2022-09-30T23:18:34.691Z,972.35
2022-09-30T23:25:13.931Z,972.22
2022-09-30T23:31:50.129Z,972.16
2022-09-30T23:38:25.220Z,972.18
2022-09-30T23:44:50.981Z,972.18
2022-09-30T23:51:20.145Z,972.15
2022-09-30T23:57:54.501Z,972.09
